Groveport, Ohio
Current Conditions -  °F | °C
As of 2:15 PM on Saturday 25 Oct 2014 (Local Time) from KLCK Reporting Station
Scattered Clouds Scattered Clouds  
Wind Chill: 68°   Ceiling: Unl
Heat Index: 68°   Visibility: 10mi
Dew Point: 55°   Wind: 16mph
Humidity: 64%   Direction: 220°SW
Pressure: 29.87"   Gusts: 22mph
Location:  39.86°N, 82.9°W
Report Text: KLCK 251815Z AUTO 22014G19KT 10SM SCT029 20/13 A2987 RMK AO2 T01990128
Loading
Personal Weather Stations






























Interactive Weather Map
Tropical Storm Tracking
New forecast layout! Learn more

10-Day Weather Forecast

Advertisements
Track Severe Weather on mobile